createdAt,value
2023-05-12T00:01:14.242Z,937.55
2023-05-12T00:03:41.220Z,957.67
2023-05-12T00:06:07.957Z,948.10
2023-05-12T00:08:34.369Z,965.40
2023-05-12T00:11:01.395Z,974.15
2023-05-12T00:13:28.961Z,954.20
2023-05-12T00:15:58.584Z,961.00
2023-05-12T00:18:26.276Z,954.03
2023-05-12T00:20:55.538Z,993.10
2023-05-12T00:23:22.531Z,981.13
2023-05-12T00:25:49.598Z,974.50
2023-05-12T00:28:16.733Z,964.58
2023-05-12T00:30:43.103Z,963.20
2023-05-12T00:33:09.557Z,979.42
2023-05-12T00:35:35.870Z,981.47
2023-05-12T00:38:02.202Z,978.10
2023-05-12T00:40:28.700Z,983.50
2023-05-12T00:42:55.019Z,962.28
2023-05-12T00:45:21.837Z,964.15
2023-05-12T00:47:49.388Z,970.25
2023-05-12T00:50:17.367Z,949.67
2023-05-12T00:52:44.065Z,954.80
2023-05-12T00:55:10.568Z,960.67
2023-05-12T00:57:37.128Z,952.65
2023-05-12T01:00:04.921Z,975.53
2023-05-12T01:02:31.418Z,968.50
2023-05-12T01:04:58.127Z,960.92
2023-05-12T01:07:26.046Z,958.95
2023-05-12T01:09:56.512Z,969.78
2023-05-12T01:12:23.661Z,979.33
2023-05-12T01:14:52.173Z,964.53
2023-05-12T01:17:33.352Z,966.95
2023-05-12T01:20:02.184Z,964.50
2023-05-12T01:22:31.512Z,965.78
2023-05-12T01:25:01.713Z,945.25
2023-05-12T01:27:29.275Z,950.65
2023-05-12T01:30:01.650Z,942.28
2023-05-12T01:32:28.174Z,940.92
2023-05-12T01:34:54.557Z,938.40
2023-05-12T01:37:21.033Z,955.47
2023-05-12T01:39:47.619Z,956.42
2023-05-12T01:42:14.010Z,947.38
2023-05-12T01:44:40.765Z,957.35
2023-05-12T01:47:09.842Z,971.58
2023-05-12T01:49:36.399Z,959.45
2023-05-12T01:52:02.955Z,939.10
2023-05-12T01:54:29.633Z,948.13
2023-05-12T01:56:56.108Z,921.95
2023-05-12T01:59:22.604Z,986.38
2023-05-12T02:01:49.111Z,961.03
2023-05-12T02:04:15.524Z,946.72
2023-05-12T02:06:41.904Z,942.67
2023-05-12T02:09:08.252Z,940.58
2023-05-12T02:11:34.598Z,940.08
2023-05-12T02:14:00.970Z,943.60
2023-05-12T02:16:27.356Z,937.97
2023-05-12T02:18:53.885Z,940.38
2023-05-12T02:21:20.334Z,943.72
2023-05-12T02:23:46.912Z,951.55
2023-05-12T02:26:13.517Z,944.80
2023-05-12T02:28:39.837Z,931.20
2023-05-12T02:31:06.262Z,914.03
2023-05-12T02:33:32.624Z,919.53
2023-05-12T02:35:59.096Z,908.38
2023-05-12T02:38:25.695Z,908.15
2023-05-12T02:40:52.109Z,904.15
2023-05-12T02:43:18.519Z,914.90
2023-05-12T02:45:44.888Z,929.22
2023-05-12T02:48:11.392Z,924.67
2023-05-12T02:50:37.739Z,915.30
2023-05-12T02:53:04.477Z,918.47
2023-05-12T02:55:30.853Z,918.22
2023-05-12T02:57:57.284Z,909.63
2023-05-12T03:00:23.716Z,898.35
2023-05-12T03:02:52.380Z,910.35
2023-05-12T03:05:18.907Z,905.28
2023-05-12T03:07:45.447Z,881.88
2023-05-12T03:10:11.805Z,899.10
2023-05-12T03:12:38.132Z,880.15
2023-05-12T03:15:04.864Z,881.78
2023-05-12T03:17:31.395Z,910.97
2023-05-12T03:19:57.783Z,887.65
2023-05-12T03:22:24.278Z,908.92
2023-05-12T03:24:51.671Z,896.88
2023-05-12T03:27:18.078Z,903.97
2023-05-12T03:29:44.443Z,886.67
2023-05-12T03:32:11.967Z,914.10
2023-05-12T03:34:38.293Z,905.38
2023-05-12T03:37:04.839Z,896.10
2023-05-12T03:39:31.187Z,884.63
2023-05-12T03:41:57.505Z,894.35
2023-05-12T03:44:23.928Z,904.50
2023-05-12T03:46:50.448Z,902.20
2023-05-12T03:49:17.092Z,904.40
2023-05-12T03:51:43.431Z,893.10
2023-05-12T03:54:09.812Z,888.15
2023-05-12T03:56:36.426Z,880.78
2023-05-12T03:59:03.986Z,886.13
2023-05-12T04:01:30.490Z,904.05
2023-05-12T04:03:56.962Z,913.05
2023-05-12T04:06:23.358Z,893.42
2023-05-12T04:08:49.662Z,888.78
2023-05-12T04:11:16.009Z,887.95
2023-05-12T04:13:42.332Z,857.92
2023-05-12T04:16:08.727Z,879.80
2023-05-12T04:18:36.592Z,884.75
2023-05-12T04:21:03.269Z,885.10
2023-05-12T04:23:29.600Z,864.65
2023-05-12T04:25:56.387Z,881.45
2023-05-12T04:28:22.876Z,896.55
2023-05-12T04:30:49.277Z,906.25
2023-05-12T04:33:15.669Z,925.60
2023-05-12T04:35:42.020Z,899.90
2023-05-12T04:38:08.428Z,939.22
2023-05-12T04:40:35.203Z,919.13
2023-05-12T04:43:01.725Z,953.25
2023-05-12T04:45:28.128Z,922.97
2023-05-12T04:47:54.512Z,957.50
2023-05-12T04:50:21.134Z,941.40
2023-05-12T04:52:47.518Z,928.05
2023-05-12T04:55:13.894Z,941.50
2023-05-12T04:57:41.356Z,915.75
2023-05-12T05:00:09.038Z,924.45
2023-05-12T05:02:35.716Z,936.10
2023-05-12T05:05:02.228Z,912.63
2023-05-12T05:07:28.606Z,905.90
2023-05-12T05:09:55.001Z,911.15
2023-05-12T05:12:21.384Z,908.83
2023-05-12T05:14:48.038Z,905.42
2023-05-12T05:17:14.688Z,927.75
2023-05-12T05:19:54.836Z,922.67
2023-05-12T05:22:25.074Z,897.88
2023-05-12T05:24:51.813Z,877.65
2023-05-12T05:27:18.316Z,887.72
2023-05-12T05:29:44.670Z,881.90
2023-05-12T05:32:11.297Z,891.67
2023-05-12T05:34:37.847Z,872.67
2023-05-12T05:37:04.375Z,875.92
2023-05-12T05:39:30.922Z,897.65
2023-05-12T05:41:57.951Z,895.70
2023-05-12T05:44:25.094Z,891.05
2023-05-12T05:46:51.811Z,897.95
2023-05-12T05:49:18.529Z,876.33
2023-05-12T05:51:44.903Z,897.53
2023-05-12T05:54:11.935Z,901.15
2023-05-12T05:56:38.274Z,904.70
2023-05-12T05:59:05.087Z,896.28
2023-05-12T06:01:32.376Z,890.83
2023-05-12T06:03:59.165Z,866.78
2023-05-12T06:06:25.692Z,887.67
2023-05-12T06:08:52.054Z,870.15
2023-05-12T06:11:18.413Z,885.95
2023-05-12T06:13:44.733Z,854.65
2023-05-12T06:16:11.287Z,857.63
2023-05-12T06:18:38.208Z,860.22
2023-05-12T06:21:05.465Z,838.33
2023-05-12T06:23:31.963Z,840.10
2023-05-12T06:25:58.380Z,851.08
2023-05-12T06:28:24.759Z,848.30
2023-05-12T06:30:51.198Z,827.13
2023-05-12T06:33:17.591Z,863.40
2023-05-12T06:35:43.973Z,836.85
2023-05-12T06:38:10.456Z,838.50
2023-05-12T06:40:36.868Z,845.40
2023-05-12T06:43:03.223Z,821.17
2023-05-12T06:45:30.131Z,826.30
2023-05-12T06:47:57.570Z,813.92
2023-05-12T06:50:24.051Z,827.33
2023-05-12T06:52:50.760Z,803.90
2023-05-12T06:55:19.965Z,764.35
2023-05-12T06:57:46.652Z,771.38
2023-05-12T07:00:13.805Z,706.63
2023-05-12T07:02:40.291Z,727.63
2023-05-12T07:05:06.878Z,757.35
2023-05-12T07:07:33.309Z,726.72
2023-05-12T07:09:59.644Z,707.90
2023-05-12T07:12:26.070Z,710.85
2023-05-12T07:14:52.422Z,712.40
2023-05-12T07:17:18.769Z,706.17
2023-05-12T07:19:45.097Z,694.40
2023-05-12T07:22:11.478Z,709.50
2023-05-12T07:24:38.496Z,664.42
2023-05-12T07:27:05.703Z,605.00
2023-05-12T07:29:32.070Z,676.75
2023-05-12T07:31:58.628Z,659.67
2023-05-12T07:34:25.054Z,566.13
2023-05-12T07:36:51.413Z,598.70
2023-05-12T07:39:23.580Z,613.53
2023-05-12T07:41:50.883Z,570.53
2023-05-12T07:44:17.295Z,638.60
2023-05-12T07:46:43.849Z,667.03
2023-05-12T07:49:10.264Z,563.95
2023-05-12T07:51:36.769Z,630.70
2023-05-12T07:54:03.151Z,566.88
2023-05-12T07:56:29.482Z,486.23
2023-05-12T07:58:56.174Z,501.33
2023-05-12T08:01:22.722Z,484.67
2023-05-12T08:03:51.779Z,489.70
2023-05-12T08:06:18.673Z,504.75
2023-05-12T08:08:45.218Z,533.33
2023-05-12T08:11:12.563Z,474.10
2023-05-12T08:13:39.634Z,329.75
2023-05-12T08:16:06.212Z,361.92
2023-05-12T08:18:32.662Z,368.75
2023-05-12T08:20:59.025Z,338.52
2023-05-12T08:23:25.613Z,482.08
2023-05-12T08:25:54.415Z,481.58
2023-05-12T08:28:21.176Z,454.08
2023-05-12T08:30:47.682Z,350.85
2023-05-12T08:33:16.714Z,391.73
2023-05-12T08:35:45.254Z,291.25
2023-05-12T08:38:14.728Z,415.50
2023-05-12T08:40:55.825Z,431.70
2023-05-12T08:43:31.531Z,416.10
2023-05-12T08:45:58.459Z,341.05
2023-05-12T08:48:32.075Z,144.43
2023-05-12T08:50:59.289Z,272.40
2023-05-12T08:53:27.828Z,216.80
2023-05-12T08:57:09.477Z,261.02
2023-05-12T08:58:42.857Z,165.40
2023-05-12T09:01:11.879Z,176.43
2023-05-12T09:03:38.955Z,184.65
2023-05-12T09:06:06.530Z,100.47
2023-05-12T09:08:34.779Z,136.73
2023-05-12T09:11:02.018Z,108.00
2023-05-12T09:13:38.447Z,70.88
2023-05-12T09:16:12.665Z,64.63
2023-05-12T09:18:52.770Z,55.70
2023-05-12T09:21:19.675Z,54.38
2023-05-12T09:23:57.249Z,52.00
2023-05-12T09:26:59.178Z,51.53
2023-05-12T09:29:31.677Z,51.15
2023-05-12T09:34:30.978Z,56.63
2023-05-12T09:36:59.935Z,54.70
2023-05-12T09:39:26.703Z,48.55
2023-05-12T09:41:53.826Z,37.60
2023-05-12T09:44:21.132Z,34.83
2023-05-12T09:46:48.556Z,35.67
2023-05-12T09:49:20.131Z,35.50
2023-05-12T09:51:46.835Z,29.77
2023-05-12T09:54:13.875Z,28.50
2023-05-12T09:56:40.827Z,29.73
2023-05-12T09:59:10.258Z,27.42
2023-05-12T10:01:37.081Z,26.52
2023-05-12T10:04:07.458Z,30.00
2023-05-12T10:06:40.749Z,28.63
2023-05-12T10:09:20.576Z,24.60
2023-05-12T10:11:47.759Z,25.58
2023-05-12T10:14:16.739Z,17.58
2023-05-12T10:16:46.178Z,14.77
2023-05-12T10:19:13.980Z,16.58
2023-05-12T10:21:43.501Z,16.55
2023-05-12T10:24:10.279Z,13.63
2023-05-12T10:26:37.538Z,14.05
2023-05-12T10:29:04.042Z,14.40
2023-05-12T10:31:30.736Z,11.70
2023-05-12T10:34:01.103Z,13.45
2023-05-12T10:36:27.841Z,14.15
2023-05-12T10:38:55.028Z,15.38
2023-05-12T10:41:32.210Z,18.38
2023-05-12T10:43:59.058Z,12.40
2023-05-12T10:46:27.128Z,18.20
2023-05-12T10:49:07.560Z,13.07
2023-05-12T10:51:46.020Z,16.48
2023-05-12T10:54:20.186Z,11.88
2023-05-12T10:56:47.426Z,9.63
2023-05-12T10:59:17.829Z,9.30
2023-05-12T11:01:59.236Z,8.18
2023-05-12T11:04:42.015Z,7.80
2023-05-12T11:07:14.262Z,8.30
2023-05-12T11:09:56.791Z,10.20
2023-05-12T11:12:33.795Z,10.68
2023-05-12T11:15:02.613Z,11.63
2023-05-12T11:17:29.426Z,12.18
2023-05-12T11:19:56.353Z,9.75
2023-05-12T11:22:23.718Z,10.48
2023-05-12T11:24:51.170Z,9.40
2023-05-12T11:27:19.413Z,10.98
2023-05-12T11:29:59.565Z,9.85
2023-05-12T11:32:26.485Z,9.00
2023-05-12T11:34:53.062Z,7.65
2023-05-12T11:37:21.158Z,10.23
2023-05-12T11:39:48.096Z,12.15
2023-05-12T11:42:16.302Z,10.68
2023-05-12T11:44:49.412Z,7.82
2023-05-12T11:47:19.650Z,8.38
2023-05-12T11:49:56.752Z,7.50
2023-05-12T11:52:24.692Z,7.55
2023-05-12T11:54:52.818Z,6.47
2023-05-12T11:57:27.592Z,7.47
2023-05-12T12:00:06.831Z,7.63
2023-05-12T12:02:37.336Z,7.88
2023-05-12T12:05:08.546Z,7.68
2023-05-12T12:07:36.638Z,8.20
2023-05-12T12:10:13.178Z,8.25
2023-05-12T12:12:43.347Z,7.53
2023-05-12T12:15:10.555Z,9.02
2023-05-12T12:17:37.223Z,8.35
2023-05-12T12:20:04.076Z,6.55
2023-05-12T12:22:34.104Z,8.82
2023-05-12T12:25:01.676Z,6.78
2023-05-12T12:27:28.192Z,5.88
2023-05-12T12:29:54.620Z,5.55
2023-05-12T12:32:21.089Z,9.88
2023-05-12T12:34:48.843Z,10.88
2023-05-12T12:37:15.566Z,10.23
2023-05-12T12:39:41.958Z,7.03
2023-05-12T12:42:08.723Z,7.70
2023-05-12T12:44:35.441Z,6.95
2023-05-12T12:47:01.951Z,7.90
2023-05-12T12:49:28.389Z,7.38
2023-05-12T12:51:55.416Z,7.20
2023-05-12T12:54:21.811Z,7.57
2023-05-12T12:56:48.262Z,8.13
2023-05-12T12:59:14.968Z,7.78
2023-05-12T13:01:41.367Z,17.10
2023-05-12T13:04:07.791Z,13.88
2023-05-12T13:06:34.587Z,16.27
2023-05-12T13:09:03.055Z,10.98
2023-05-12T13:11:29.562Z,11.70
2023-05-12T13:13:58.381Z,17.55
2023-05-12T13:16:24.749Z,23.60
2023-05-12T13:18:51.201Z,13.07
2023-05-12T13:21:18.660Z,20.23
2023-05-12T13:23:45.232Z,10.13
2023-05-12T13:26:14.458Z,18.13
2023-05-12T13:28:40.927Z,23.65
2023-05-12T13:31:07.509Z,12.73
2023-05-12T13:33:34.027Z,11.30
2023-05-12T13:36:00.517Z,15.75
2023-05-12T13:38:26.907Z,9.68
2023-05-12T13:40:53.457Z,12.68
2023-05-12T13:43:19.862Z,10.98
2023-05-12T13:45:49.181Z,18.08
2023-05-12T13:48:15.576Z,13.00
2023-05-12T13:50:42.158Z,17.83
2023-05-12T13:53:09.630Z,17.67
2023-05-12T13:55:40.655Z,23.90
2023-05-12T13:58:07.364Z,15.75
2023-05-12T14:00:33.794Z,16.77
2023-05-12T14:03:00.267Z,15.85
2023-05-12T14:05:27.366Z,13.70
2023-05-12T14:07:53.768Z,17.90
2023-05-12T14:10:20.112Z,11.18
2023-05-12T14:12:46.741Z,11.15
2023-05-12T14:17:45.643Z,11.18
2023-05-12T14:20:15.142Z,14.07
2023-05-12T14:22:42.061Z,15.27
2023-05-12T14:25:08.781Z,12.93
2023-05-12T14:27:35.259Z,13.10
2023-05-12T14:30:02.143Z,13.02
2023-05-12T14:32:28.729Z,13.52
2023-05-12T14:34:55.111Z,13.02
2023-05-12T14:37:21.635Z,11.77
2023-05-12T14:39:47.977Z,11.93
2023-05-12T14:42:14.406Z,11.50
2023-05-12T14:44:40.768Z,10.45
2023-05-12T14:47:09.117Z,10.25
2023-05-12T14:49:35.664Z,10.90
2023-05-12T14:52:02.386Z,11.88
2023-05-12T14:54:28.780Z,11.98
2023-05-12T14:56:55.213Z,12.13
2023-05-12T14:59:21.733Z,13.52
2023-05-12T15:01:48.124Z,12.13
2023-05-12T15:04:14.534Z,13.07
2023-05-12T15:06:40.884Z,13.30
2023-05-12T15:09:07.355Z,14.32
2023-05-12T15:11:34.198Z,14.30
2023-05-12T15:14:00.598Z,14.77
2023-05-12T15:16:28.152Z,14.52
2023-05-12T15:18:54.686Z,14.70
2023-05-12T15:21:21.144Z,14.30
2023-05-12T15:23:47.592Z,13.30
2023-05-12T15:26:31.446Z,15.65
2023-05-12T15:28:59.879Z,13.30
2023-05-12T15:31:28.895Z,15.00
2023-05-12T15:33:56.630Z,16.20
2023-05-12T15:36:23.232Z,15.30
2023-05-12T15:38:49.702Z,15.77
2023-05-12T15:41:16.109Z,14.20
2023-05-12T15:43:42.485Z,15.45
2023-05-12T15:46:10.849Z,14.88
2023-05-12T15:48:37.490Z,15.98
2023-05-12T15:51:04.261Z,17.38
2023-05-12T15:53:31.328Z,16.55
2023-05-12T15:56:01.954Z,16.27
2023-05-12T15:58:28.895Z,17.20
2023-05-12T16:00:56.096Z,15.88
2023-05-12T16:03:23.435Z,15.88
2023-05-12T16:05:50.576Z,16.15
2023-05-12T16:08:17.122Z,17.63
2023-05-12T16:10:45.868Z,19.38
2023-05-12T16:18:07.567Z,15.45
2023-05-12T16:20:41.883Z,14.02
2023-05-12T16:25:54.841Z,14.38
2023-05-12T16:28:24.664Z,14.23
2023-05-12T16:30:51.047Z,13.98
2023-05-12T16:33:17.478Z,10.35
2023-05-12T16:35:44.042Z,10.98
2023-05-12T16:38:15.936Z,10.10
2023-05-12T16:40:42.530Z,13.13
2023-05-12T16:43:08.986Z,17.23
2023-05-12T16:45:35.444Z,15.35
2023-05-12T16:48:02.026Z,9.32
2023-05-12T16:50:28.403Z,12.18
2023-05-12T16:52:54.931Z,12.32
2023-05-12T16:55:21.801Z,11.13
2023-05-12T16:57:48.461Z,13.73
2023-05-12T17:00:15.377Z,11.05
2023-05-12T17:02:42.559Z,10.00
2023-05-12T17:05:09.134Z,10.15
2023-05-12T17:07:35.591Z,9.20
2023-05-12T17:10:03.011Z,13.50
2023-05-12T17:12:29.499Z,11.95
2023-05-12T17:15:03.837Z,11.85
2023-05-12T17:17:34.030Z,11.40
2023-05-12T17:20:00.707Z,10.30
2023-05-12T17:22:28.039Z,11.55
2023-05-12T17:24:54.759Z,11.30
2023-05-12T17:27:21.434Z,12.95
2023-05-12T17:29:47.800Z,10.27
2023-05-12T17:32:14.188Z,9.07
2023-05-12T17:34:40.526Z,10.43
2023-05-12T17:37:07.459Z,11.30
2023-05-12T17:39:34.184Z,10.15
2023-05-12T17:42:00.492Z,11.32
2023-05-12T17:44:26.893Z,12.13
2023-05-12T17:46:53.463Z,12.02
2023-05-12T17:49:19.923Z,11.65
2023-05-12T17:51:46.862Z,11.65
2023-05-12T17:54:13.390Z,11.48
2023-05-12T17:56:39.694Z,11.15
2023-05-12T17:59:06.189Z,11.50
2023-05-12T18:01:32.865Z,11.20
2023-05-12T18:03:59.408Z,10.18
2023-05-12T18:06:26.042Z,9.48
2023-05-12T18:08:52.385Z,11.40
2023-05-12T18:11:18.741Z,11.18
2023-05-12T18:13:45.256Z,10.13
2023-05-12T18:16:24.997Z,9.25
2023-05-12T18:18:54.751Z,10.95
2023-05-12T18:21:21.154Z,11.95
2023-05-12T18:23:47.503Z,9.60
2023-05-12T18:26:13.865Z,11.00
2023-05-12T18:28:40.694Z,17.17
2023-05-12T18:31:15.932Z,25.52
2023-05-12T18:33:46.918Z,24.98
2023-05-12T18:36:13.513Z,28.88
2023-05-12T18:38:40.050Z,24.08
2023-05-12T18:41:07.211Z,26.90
2023-05-12T18:43:34.811Z,22.48
2023-05-12T18:46:01.602Z,24.77
2023-05-12T18:48:28.253Z,36.70
2023-05-12T18:50:56.084Z,23.15
2023-05-12T18:53:23.111Z,19.30
2023-05-12T18:55:50.178Z,15.48
2023-05-12T18:58:16.956Z,15.57
2023-05-12T19:00:44.116Z,16.13
2023-05-12T19:03:10.962Z,18.50
2023-05-12T19:05:37.797Z,19.90
2023-05-12T19:08:04.364Z,19.13
2023-05-12T19:10:30.812Z,19.33
2023-05-12T19:12:57.377Z,21.23
2023-05-12T19:15:23.936Z,16.02
2023-05-12T19:17:50.626Z,23.60
2023-05-12T19:20:17.346Z,18.13
2023-05-12T19:22:44.728Z,19.67
2023-05-12T19:25:11.868Z,22.45
2023-05-12T19:27:38.248Z,21.00
2023-05-12T19:30:05.409Z,23.35
2023-05-12T19:32:32.857Z,26.98
2023-05-12T19:35:00.914Z,20.35
2023-05-12T19:37:27.554Z,18.88
2023-05-12T19:39:54.071Z,21.58
2023-05-12T19:42:21.363Z,20.55
2023-05-12T19:44:47.744Z,25.98
2023-05-12T19:47:14.177Z,73.55
2023-05-12T19:49:40.546Z,22.38
2023-05-12T19:52:07.163Z,40.22
2023-05-12T19:54:33.582Z,24.27
2023-05-12T19:56:59.957Z,21.63
2023-05-12T19:59:26.792Z,45.58
2023-05-12T20:01:53.144Z,20.65
2023-05-12T20:04:19.601Z,37.67
2023-05-12T20:06:46.087Z,29.17
2023-05-12T20:09:12.473Z,24.20
2023-05-12T20:11:38.828Z,42.70
2023-05-12T20:14:05.244Z,58.33
2023-05-12T20:16:31.609Z,24.55
2023-05-12T20:19:02.895Z,79.50
2023-05-12T20:21:31.160Z,69.43
2023-05-12T20:23:57.531Z,53.70
2023-05-12T20:26:24.512Z,103.68
2023-05-12T20:28:53.641Z,42.30
2023-05-12T20:31:20.164Z,57.45
2023-05-12T20:33:46.566Z,45.83
2023-05-12T20:36:12.896Z,42.03
2023-05-12T20:38:39.673Z,66.75
2023-05-12T20:41:07.120Z,72.63
2023-05-12T20:43:33.765Z,69.15
2023-05-12T20:46:03.228Z,58.70
2023-05-12T20:48:29.922Z,49.15
2023-05-12T20:50:56.466Z,74.25
2023-05-12T20:53:23.266Z,64.20
2023-05-12T20:55:49.697Z,59.13
2023-05-12T20:58:16.155Z,70.50
2023-05-12T21:00:42.531Z,70.90
2023-05-12T21:03:14.160Z,36.38
2023-05-12T21:05:42.331Z,32.75
2023-05-12T21:08:08.769Z,37.40
2023-05-12T21:10:39.201Z,23.92
2023-05-12T21:13:05.722Z,24.75
2023-05-12T21:15:32.084Z,25.67
2023-05-12T21:17:58.792Z,25.55
2023-05-12T21:20:25.205Z,26.33
2023-05-12T21:22:51.570Z,39.65
2023-05-12T21:25:18.000Z,52.08
2023-05-12T21:27:45.712Z,34.42
2023-05-12T21:30:12.309Z,30.08
2023-05-12T21:32:39.646Z,37.08
2023-05-12T21:35:07.321Z,25.70
2023-05-12T21:37:34.222Z,31.33
2023-05-12T21:40:00.695Z,37.45
2023-05-12T21:42:27.134Z,31.40
2023-05-12T21:44:53.487Z,26.27
2023-05-12T21:47:20.143Z,38.78
2023-05-12T21:49:46.498Z,47.15
2023-05-12T21:52:13.596Z,71.38
2023-05-12T21:54:39.981Z,67.47
2023-05-12T21:57:06.382Z,82.05
2023-05-12T21:59:32.858Z,56.05
2023-05-12T22:01:59.531Z,42.88
2023-05-12T22:04:26.065Z,49.50
2023-05-12T22:06:52.408Z,42.83
2023-05-12T22:09:20.251Z,39.67
2023-05-12T22:11:46.652Z,37.28
2023-05-12T22:14:13.230Z,37.13
2023-05-12T22:16:42.156Z,35.28
2023-05-12T22:19:09.637Z,40.10
2023-05-12T22:21:36.286Z,49.05
2023-05-12T22:24:03.058Z,52.47
2023-05-12T22:26:29.803Z,47.13
2023-05-12T22:28:56.215Z,43.25
2023-05-12T22:31:22.657Z,39.88
2023-05-12T22:33:49.180Z,41.63
2023-05-12T22:36:15.810Z,39.55
2023-05-12T22:38:42.146Z,45.17
2023-05-12T22:41:08.486Z,43.72
2023-05-12T22:43:34.835Z,40.75
2023-05-12T22:46:01.182Z,41.20
2023-05-12T22:48:27.553Z,42.28
2023-05-12T22:50:54.517Z,40.08
2023-05-12T22:53:20.916Z,33.03
2023-05-12T22:55:47.303Z,39.72
2023-05-12T22:58:14.313Z,32.72
2023-05-12T23:00:40.768Z,33.17
2023-05-12T23:03:07.335Z,33.05
2023-05-12T23:05:33.818Z,40.50
2023-05-12T23:08:00.380Z,37.75
2023-05-12T23:10:26.769Z,35.92
2023-05-12T23:12:53.177Z,34.47
2023-05-12T23:15:19.684Z,35.45
2023-05-12T23:17:46.179Z,42.35
2023-05-12T23:20:12.800Z,33.97
2023-05-12T23:22:40.226Z,32.22
2023-05-12T23:25:07.289Z,33.78
2023-05-12T23:27:33.697Z,34.90
2023-05-12T23:30:00.180Z,35.63
2023-05-12T23:32:26.681Z,35.80
2023-05-12T23:34:53.128Z,35.45
2023-05-12T23:37:19.561Z,34.17
2023-05-12T23:39:46.136Z,36.05
2023-05-12T23:42:12.484Z,38.15
2023-05-12T23:44:38.895Z,35.40
2023-05-12T23:47:05.595Z,34.60
2023-05-12T23:49:32.214Z,37.38
2023-05-12T23:51:58.532Z,35.67
2023-05-12T23:54:24.926Z,32.65
2023-05-12T23:56:51.495Z,37.15
2023-05-12T23:59:17.963Z,32.03
